createdAt,value
2018-03-16T00:02:41.935Z,4.80
2018-03-16T00:05:11.809Z,4.67
2018-03-16T00:07:41.909Z,3.70
2018-03-16T00:10:13.812Z,3.87
2018-03-16T00:15:32.319Z,2.97
2018-03-16T00:18:02.331Z,3.30
2018-03-16T00:20:32.640Z,3.00
2018-03-16T00:23:02.133Z,2.87
2018-03-16T00:25:33.865Z,2.90
2018-03-16T00:28:03.368Z,2.90
2018-03-16T00:30:46.948Z,3.00
2018-03-16T00:33:16.440Z,2.40
2018-03-16T00:35:47.320Z,2.80
2018-03-16T00:38:16.819Z,2.77
2018-03-16T00:40:47.870Z,3.20
2018-03-16T00:43:19.145Z,2.50
2018-03-16T00:48:58.780Z,2.90
2018-03-16T00:51:31.419Z,2.70
2018-03-16T00:54:03.026Z,2.20
2018-03-16T00:56:39.686Z,2.47
2018-03-16T00:59:14.902Z,2.70
2018-03-16T01:01:47.384Z,3.67
2018-03-16T01:04:20.280Z,2.70
2018-03-16T01:06:52.872Z,2.53
2018-03-16T01:09:22.543Z,2.63
2018-03-16T01:11:52.977Z,2.40
2018-03-16T01:14:22.486Z,2.97
2018-03-16T01:16:52.447Z,3.20
2018-03-16T01:19:21.940Z,3.20
2018-03-16T01:21:51.941Z,3.23
2018-03-16T01:24:22.379Z,3.27
2018-03-16T01:26:53.029Z,3.93
2018-03-16T01:29:23.858Z,3.43
2018-03-16T01:31:53.733Z,3.80
2018-03-16T01:34:23.650Z,3.47
2018-03-16T01:36:53.141Z,3.60
2018-03-16T01:39:22.643Z,3.33
2018-03-16T01:41:56.896Z,3.60
2018-03-16T01:44:28.345Z,3.60
2018-03-16T01:47:25.532Z,3.27
2018-03-16T01:49:55.430Z,3.90
2018-03-16T01:52:25.094Z,3.70
2018-03-16T01:54:54.927Z,3.60
2018-03-16T01:57:25.055Z,3.80
2018-03-16T01:59:54.720Z,3.43
2018-03-16T02:02:24.676Z,3.67
2018-03-16T02:04:54.700Z,3.67
2018-03-16T02:07:25.084Z,3.40
2018-03-16T02:09:55.715Z,3.73
2018-03-16T02:12:27.814Z,3.70
2018-03-16T02:14:58.207Z,3.90
2018-03-16T02:17:30.558Z,3.43
2018-03-16T02:20:00.071Z,3.37
2018-03-16T02:22:29.559Z,3.57
2018-03-16T02:24:59.066Z,3.63
2018-03-16T02:27:28.883Z,3.70
2018-03-16T02:29:58.738Z,3.97
2018-03-16T02:32:30.573Z,3.77
2018-03-16T02:35:00.092Z,3.30
2018-03-16T02:37:30.254Z,3.80
2018-03-16T02:40:00.355Z,3.30
2018-03-16T02:42:30.104Z,3.30
2018-03-16T02:44:59.636Z,3.87
2018-03-16T02:47:29.126Z,3.60
2018-03-16T02:50:01.504Z,4.13
2018-03-16T02:52:36.354Z,3.40
2018-03-16T02:55:09.604Z,3.90
2018-03-16T02:57:44.106Z,3.40
2018-03-16T03:00:15.001Z,3.07
2018-03-16T03:02:44.836Z,3.10
2018-03-16T03:05:14.327Z,2.80
2018-03-16T03:07:43.904Z,3.17
2018-03-16T03:10:14.419Z,3.10
2018-03-16T03:12:43.907Z,3.33
2018-03-16T03:15:15.750Z,3.53
2018-03-16T03:17:49.597Z,3.30
2018-03-16T03:20:19.966Z,2.60
2018-03-16T03:22:49.455Z,3.00
2018-03-16T03:25:18.956Z,2.90
2018-03-16T03:27:49.263Z,3.10
2018-03-16T03:30:19.185Z,2.80
2018-03-16T03:32:48.697Z,2.80
2018-03-16T03:35:20.830Z,2.73
2018-03-16T03:37:51.767Z,2.57
2018-03-16T03:40:22.224Z,2.80
2018-03-16T03:42:51.706Z,3.20
2018-03-16T03:45:21.225Z,2.73
2018-03-16T03:47:51.347Z,2.60
2018-03-16T03:50:20.841Z,3.03
2018-03-16T03:52:52.672Z,2.70
2018-03-16T03:55:31.094Z,2.63
2018-03-16T03:58:06.784Z,2.83
2018-03-16T04:00:36.662Z,3.20
2018-03-16T04:03:06.171Z,2.97
2018-03-16T04:05:36.075Z,3.23
2018-03-16T04:08:07.957Z,3.37
2018-03-16T04:10:37.898Z,3.17
2018-03-16T04:13:07.390Z,3.27
2018-03-16T04:15:37.326Z,2.43
2018-03-16T04:18:16.884Z,2.57
2018-03-16T04:20:46.414Z,2.30
2018-03-16T04:23:19.331Z,2.60
2018-03-16T04:25:53.249Z,2.60
2018-03-16T04:28:24.135Z,2.00
2018-03-16T04:30:53.619Z,1.93
2018-03-16T04:33:23.106Z,2.17
2018-03-16T04:35:53.131Z,2.40
2018-03-16T04:38:22.633Z,2.50
2018-03-16T04:40:54.346Z,2.30
2018-03-16T04:43:27.942Z,2.60
2018-03-16T04:46:04.250Z,2.07
2018-03-16T04:48:34.526Z,2.13
2018-03-16T04:51:05.585Z,1.90
2018-03-16T04:53:35.251Z,1.73
2018-03-16T04:56:04.749Z,2.10
2018-03-16T04:58:34.305Z,1.63
2018-03-16T05:01:03.767Z,2.07
2018-03-16T05:03:41.699Z,1.87
2018-03-16T05:06:13.892Z,2.63
2018-03-16T05:08:44.472Z,1.87
2018-03-16T05:11:14.509Z,1.90
2018-03-16T05:13:44.754Z,1.93
2018-03-16T05:16:18.039Z,1.70
2018-03-16T05:18:48.701Z,2.00
2018-03-16T05:21:22.433Z,2.20
2018-03-16T05:23:52.295Z,1.87
2018-03-16T05:26:21.821Z,2.07
2018-03-16T05:28:51.949Z,1.87
2018-03-16T05:31:23.514Z,2.00
2018-03-16T05:33:58.103Z,2.20
2018-03-16T05:36:49.533Z,2.10
2018-03-16T05:39:19.035Z,2.60
2018-03-16T05:41:51.031Z,3.57
2018-03-16T05:44:20.875Z,3.93
2018-03-16T05:46:50.887Z,3.47
2018-03-16T05:49:20.383Z,3.87
2018-03-16T05:51:50.869Z,4.13
2018-03-16T05:54:20.330Z,3.70
2018-03-16T05:56:52.388Z,4.53
2018-03-16T05:59:22.678Z,4.00
2018-03-16T06:01:52.551Z,4.20
2018-03-16T06:04:22.542Z,4.90
2018-03-16T06:06:55.547Z,4.60
2018-03-16T06:09:33.394Z,5.23
2018-03-16T06:12:08.600Z,5.33
2018-03-16T06:14:39.127Z,5.47
2018-03-16T06:17:08.635Z,5.67
2018-03-16T06:19:38.146Z,5.47
2018-03-16T06:22:08.837Z,5.20
2018-03-16T06:24:39.177Z,7.07
2018-03-16T06:27:09.215Z,5.60
2018-03-16T06:29:40.842Z,4.97
2018-03-16T06:32:15.345Z,5.67
2018-03-16T06:34:44.881Z,5.70
2018-03-16T06:37:14.388Z,5.90
2018-03-16T06:39:43.901Z,5.53
2018-03-16T06:42:13.580Z,5.73
2018-03-16T06:44:48.790Z,6.07
2018-03-16T06:47:18.222Z,5.63
2018-03-16T06:49:47.745Z,6.57
2018-03-16T06:52:19.104Z,6.00
2018-03-16T06:54:49.356Z,5.60
2018-03-16T06:57:18.850Z,5.63
2018-03-16T06:59:48.833Z,5.90
2018-03-16T07:02:18.321Z,6.10
2018-03-16T07:04:48.379Z,6.10
2018-03-16T07:07:18.573Z,6.50
2018-03-16T07:09:48.343Z,5.83
2018-03-16T07:12:19.604Z,5.83
2018-03-16T07:14:52.715Z,6.07
2018-03-16T07:17:30.085Z,5.90
2018-03-16T07:20:08.750Z,6.03
2018-03-16T07:23:00.419Z,5.90
2018-03-16T07:25:29.925Z,5.87
2018-03-16T07:27:59.884Z,5.77
2018-03-16T07:30:30.363Z,5.97
2018-03-16T07:33:00.148Z,5.73
2018-03-16T07:35:33.272Z,5.80
2018-03-16T07:38:23.843Z,6.00
2018-03-16T07:40:53.643Z,5.77
2018-03-16T07:43:23.180Z,5.80
2018-03-16T07:46:00.252Z,5.57
2018-03-16T07:48:29.746Z,5.63
2018-03-16T07:50:59.247Z,6.57
2018-03-16T07:53:38.693Z,5.73
2018-03-16T07:56:11.162Z,5.37
2018-03-16T07:58:42.232Z,5.17
2018-03-16T08:01:12.145Z,5.07
2018-03-16T08:03:42.777Z,4.70
2018-03-16T08:06:13.467Z,4.90
2018-03-16T08:08:42.981Z,4.90
2018-03-16T08:11:14.150Z,5.27
2018-03-16T08:13:46.494Z,5.10
2018-03-16T08:16:21.406Z,6.77
2018-03-16T08:18:59.020Z,5.60
2018-03-16T08:21:33.487Z,4.90
2018-03-16T08:24:07.621Z,4.80
2018-03-16T08:26:38.165Z,5.40
2018-03-16T08:29:07.986Z,6.13
2018-03-16T08:31:37.641Z,5.80
2018-03-16T08:34:07.401Z,6.27
2018-03-16T08:36:36.907Z,6.17
2018-03-16T08:39:06.819Z,5.57
2018-03-16T08:41:42.025Z,5.20
2018-03-16T08:44:12.928Z,5.43
2018-03-16T08:46:43.970Z,5.50
2018-03-16T08:49:13.462Z,6.17
2018-03-16T08:51:42.959Z,5.90
2018-03-16T08:54:14.076Z,6.40
2018-03-16T08:56:43.593Z,5.33
2018-03-16T08:59:13.486Z,5.27
2018-03-16T09:01:45.872Z,5.53
2018-03-16T09:04:20.453Z,5.13
2018-03-16T09:06:58.531Z,5.00
2018-03-16T09:09:28.428Z,4.50
2018-03-16T09:12:00.514Z,4.67
2018-03-16T09:14:30.041Z,4.63
2018-03-16T09:16:59.532Z,4.33
2018-03-16T09:19:29.251Z,4.80
2018-03-16T09:22:00.445Z,5.30
2018-03-16T09:24:54.735Z,5.23
2018-03-16T09:27:29.745Z,5.93
2018-03-16T09:29:59.250Z,5.03
2018-03-16T09:32:28.754Z,5.40
2018-03-16T09:34:59.207Z,5.90
2018-03-16T09:37:28.716Z,5.33
2018-03-16T09:40:00.188Z,5.70
2018-03-16T09:42:30.964Z,5.87
2018-03-16T09:45:06.514Z,6.57
2018-03-16T09:47:37.344Z,6.40
2018-03-16T09:50:06.842Z,6.00
2018-03-16T09:52:36.357Z,6.00
2018-03-16T09:55:13.782Z,5.27
2018-03-16T09:57:43.284Z,5.80
2018-03-16T10:00:13.284Z,5.73
2018-03-16T10:02:42.792Z,5.27
2018-03-16T10:05:12.275Z,5.20
2018-03-16T10:07:43.695Z,4.57
2018-03-16T10:10:36.519Z,4.60
2018-03-16T10:13:06.815Z,3.83
2018-03-16T10:15:36.319Z,4.03
2018-03-16T10:18:07.149Z,3.90
2018-03-16T10:20:39.472Z,4.33
2018-03-16T10:23:10.348Z,3.90
2018-03-16T10:26:00.845Z,4.20
2018-03-16T10:28:30.358Z,4.03
2018-03-16T10:31:00.630Z,4.10
2018-03-16T10:33:31.891Z,4.23
2018-03-16T10:36:01.905Z,3.90
2018-03-16T10:41:34.681Z,3.30
2018-03-16T10:44:04.176Z,4.10
2018-03-16T10:46:33.710Z,4.00
2018-03-16T10:49:04.088Z,3.87
2018-03-16T10:51:36.023Z,4.60
2018-03-16T10:57:19.917Z,4.00
2018-03-16T10:59:50.058Z,3.57
2018-03-16T11:02:20.314Z,3.13
2018-03-16T11:04:55.805Z,2.97
2018-03-16T11:07:41.441Z,2.87
2018-03-16T11:10:15.709Z,2.70
2018-03-16T11:12:45.203Z,2.20
2018-03-16T11:15:17.520Z,2.30
2018-03-16T11:17:49.047Z,2.20
2018-03-16T11:20:18.862Z,2.13
2018-03-16T11:22:48.358Z,2.23
2018-03-16T11:25:17.946Z,2.17
2018-03-16T11:27:47.430Z,2.63
2018-03-16T11:30:23.630Z,2.03
2018-03-16T11:32:59.081Z,1.90
2018-03-16T11:35:30.273Z,2.10
2018-03-16T11:38:00.278Z,1.80
2018-03-16T11:40:29.789Z,1.80
2018-03-16T11:42:59.300Z,2.10
2018-03-16T11:45:28.791Z,2.07
2018-03-16T11:48:01.494Z,2.40
2018-03-16T11:50:30.979Z,2.13
2018-03-16T11:53:04.614Z,2.47
2018-03-16T11:55:39.004Z,2.90
2018-03-16T11:58:08.749Z,2.87
2018-03-16T12:00:41.258Z,2.40
2018-03-16T12:03:13.946Z,2.60
2018-03-16T12:05:43.443Z,2.77
2018-03-16T12:08:12.928Z,2.77
2018-03-16T12:13:51.755Z,2.87
2018-03-16T12:16:21.687Z,3.57
2018-03-16T12:18:56.525Z,2.90
2018-03-16T12:21:30.864Z,2.93
2018-03-16T12:24:04.874Z,3.40
2018-03-16T12:26:36.309Z,2.47
2018-03-16T12:29:13.153Z,2.47
2018-03-16T12:31:46.912Z,2.30
2018-03-16T12:34:20.369Z,2.53
2018-03-16T12:36:55.216Z,2.90
2018-03-16T12:39:31.906Z,2.43
2018-03-16T12:42:09.112Z,2.40
2018-03-16T12:44:38.920Z,2.47
2018-03-16T12:47:12.813Z,2.40
2018-03-16T12:49:52.662Z,2.03
2018-03-16T12:52:24.734Z,2.30
2018-03-16T12:57:56.900Z,2.63
2018-03-16T13:00:26.710Z,2.60
2018-03-16T13:02:56.218Z,2.30
2018-03-16T13:05:25.710Z,2.80
2018-03-16T13:07:55.268Z,2.60
2018-03-16T13:10:33.583Z,3.13
2018-03-16T13:13:05.004Z,3.17
2018-03-16T13:15:40.603Z,2.73
2018-03-16T13:18:11.329Z,2.80
2018-03-16T13:20:41.244Z,2.40
2018-03-16T13:23:11.711Z,3.37
2018-03-16T13:25:49.790Z,2.93
2018-03-16T13:28:21.579Z,3.50
2018-03-16T13:30:52.214Z,3.23
2018-03-16T13:33:21.697Z,3.30
2018-03-16T13:35:51.865Z,3.00
2018-03-16T13:38:22.882Z,3.57
2018-03-16T13:40:55.478Z,3.57
2018-03-16T13:43:28.762Z,3.43
2018-03-16T13:45:58.442Z,2.97
2018-03-16T13:48:28.616Z,3.13
2018-03-16T13:50:59.711Z,3.80
2018-03-16T13:53:29.210Z,3.43
2018-03-16T13:55:58.711Z,3.57
2018-03-16T13:58:31.964Z,3.33
2018-03-16T14:01:02.562Z,3.60
2018-03-16T14:03:33.226Z,3.97
2018-03-16T14:06:06.129Z,3.40
2018-03-16T14:08:35.890Z,3.40
2018-03-16T14:14:16.216Z,3.20
2018-03-16T14:16:46.124Z,3.70
2018-03-16T14:19:15.666Z,3.47
2018-03-16T14:21:51.431Z,3.17
2018-03-16T14:24:20.925Z,2.80
2018-03-16T14:27:11.636Z,2.70
2018-03-16T14:29:41.125Z,3.27
2018-03-16T14:32:10.650Z,3.50
2018-03-16T14:34:40.903Z,3.60
2018-03-16T14:37:15.119Z,3.00
2018-03-16T14:39:52.872Z,2.93
2018-03-16T14:42:22.564Z,3.20
2018-03-16T14:44:55.247Z,2.67
2018-03-16T14:47:32.546Z,2.97
2018-03-16T14:50:05.410Z,3.30
2018-03-16T14:52:35.794Z,3.80
2018-03-16T14:55:07.003Z,3.70
2018-03-16T14:57:37.254Z,3.33
2018-03-16T15:00:07.213Z,3.67
2018-03-16T15:02:36.702Z,3.47
2018-03-16T15:05:06.595Z,3.30
2018-03-16T15:07:36.089Z,3.30
2018-03-16T15:10:07.399Z,3.90
2018-03-16T15:12:39.630Z,3.37
2018-03-16T15:15:09.387Z,3.00
2018-03-16T15:17:39.280Z,3.10
2018-03-16T15:20:08.792Z,3.50
2018-03-16T15:22:40.748Z,2.87
2018-03-16T15:25:10.591Z,3.27
2018-03-16T15:27:46.933Z,3.20
2018-03-16T15:30:22.248Z,3.43
2018-03-16T15:32:56.740Z,2.37
2018-03-16T15:35:27.494Z,2.60
2018-03-16T15:37:57.670Z,2.73
2018-03-16T15:40:27.176Z,3.23
2018-03-16T15:42:57.138Z,2.80
2018-03-16T15:45:26.834Z,2.90
2018-03-16T15:47:57.983Z,2.40
2018-03-16T15:50:30.867Z,2.73
2018-03-16T15:53:02.613Z,3.33
2018-03-16T15:55:41.704Z,3.13
2018-03-16T15:58:13.356Z,2.87
2018-03-16T16:00:43.344Z,2.90
2018-03-16T16:03:12.838Z,2.90
2018-03-16T16:05:42.363Z,3.10
2018-03-16T16:08:12.833Z,2.90
2018-03-16T16:10:43.660Z,2.97
2018-03-16T16:13:16.235Z,2.50
2018-03-16T16:15:46.667Z,2.70
2018-03-16T16:18:22.031Z,2.77
2018-03-16T16:20:53.013Z,2.80
2018-03-16T16:23:30.499Z,2.77
2018-03-16T16:26:04.797Z,2.40
2018-03-16T16:28:37.151Z,2.70
2018-03-16T16:31:08.256Z,2.93
2018-03-16T16:33:37.856Z,3.20
2018-03-16T16:36:08.024Z,3.17
2018-03-16T16:38:37.530Z,3.43
2018-03-16T16:41:07.056Z,3.07
2018-03-16T16:43:36.556Z,2.77
2018-03-16T16:46:13.386Z,3.07
2018-03-16T16:48:45.026Z,3.47
2018-03-16T16:51:18.216Z,3.00
2018-03-16T16:53:53.225Z,3.03
2018-03-16T16:56:25.605Z,3.17
2018-03-16T16:58:55.357Z,3.30
2018-03-16T17:01:25.532Z,3.00
2018-03-16T17:03:54.998Z,2.70
2018-03-16T17:06:24.482Z,3.10
2018-03-16T17:08:55.026Z,3.00
2018-03-16T17:11:29.081Z,3.03
2018-03-16T17:14:20.984Z,3.20
2018-03-16T17:16:50.502Z,2.97
2018-03-16T17:19:21.448Z,2.77
2018-03-16T17:21:50.943Z,3.07
2018-03-16T17:24:22.409Z,3.37
2018-03-16T17:26:51.906Z,2.93
2018-03-16T17:29:22.024Z,2.97
2018-03-16T17:31:52.003Z,3.20
2018-03-16T17:34:21.887Z,4.10
2018-03-16T17:36:51.685Z,4.57
2018-03-16T17:39:21.963Z,4.27
2018-03-16T17:41:53.414Z,3.83
2018-03-16T17:44:23.698Z,4.43
2018-03-16T17:46:54.572Z,4.47
2018-03-16T17:49:24.516Z,3.90
2018-03-16T17:51:56.194Z,4.03
2018-03-16T17:54:26.175Z,5.13
2018-03-16T17:56:55.799Z,3.93
2018-03-16T17:59:25.309Z,4.00
2018-03-16T18:01:55.452Z,3.43
2018-03-16T18:04:30.981Z,3.53
2018-03-16T18:07:04.063Z,3.50
2018-03-16T18:09:39.719Z,3.30
2018-03-16T18:12:11.945Z,3.57
2018-03-16T18:14:46.975Z,3.27
2018-03-16T18:17:17.991Z,3.33
2018-03-16T18:19:47.909Z,3.33
2018-03-16T18:22:17.417Z,3.33
2018-03-16T18:24:46.949Z,3.27
2018-03-16T18:27:16.484Z,3.93
2018-03-16T18:29:48.976Z,3.27
2018-03-16T18:32:18.787Z,3.70
2018-03-16T18:34:51.484Z,4.07
2018-03-16T18:37:26.829Z,3.87
2018-03-16T18:39:59.856Z,3.83
2018-03-16T18:42:36.500Z,3.77
2018-03-16T18:45:06.865Z,4.10
2018-03-16T18:47:44.529Z,4.00
2018-03-16T18:50:19.915Z,4.13
2018-03-16T18:52:53.434Z,4.20
2018-03-16T18:55:26.102Z,4.30
2018-03-16T18:57:58.575Z,4.23
2018-03-16T19:00:30.097Z,4.23
2018-03-16T19:02:59.933Z,4.07
2018-03-16T19:05:29.547Z,4.80
2018-03-16T19:07:59.081Z,4.77
2018-03-16T19:10:28.866Z,4.63
2018-03-16T19:12:58.862Z,6.13
2018-03-16T19:15:28.355Z,5.70
2018-03-16T19:17:58.121Z,4.90
2018-03-16T19:20:27.684Z,5.50
2018-03-16T19:22:58.522Z,4.93
2018-03-16T19:25:28.048Z,5.80
2018-03-16T19:27:58.823Z,5.77
2018-03-16T19:30:32.427Z,7.67
2018-03-16T19:33:02.079Z,8.17
2018-03-16T19:35:31.606Z,7.90
2018-03-16T19:38:01.111Z,6.20
2018-03-16T19:40:30.596Z,7.80
2018-03-16T19:43:03.089Z,7.00
2018-03-16T19:45:34.500Z,6.43
2018-03-16T19:48:05.722Z,6.50
2018-03-16T19:50:36.136Z,7.13
2018-03-16T19:53:06.510Z,5.90
2018-03-16T19:55:36.548Z,7.43
2018-03-16T19:58:06.872Z,6.87
2018-03-16T20:00:37.900Z,6.93
2018-03-16T20:03:11.152Z,7.03
2018-03-16T20:05:43.967Z,7.40
2018-03-16T20:08:14.916Z,7.77
2018-03-16T20:10:44.670Z,9.10
2018-03-16T20:13:14.516Z,10.57
2018-03-16T20:15:44.092Z,9.37
2018-03-16T20:18:13.991Z,10.20
2018-03-16T20:20:43.494Z,9.67
2018-03-16T20:23:17.454Z,10.83
2018-03-16T20:25:50.169Z,11.03
2018-03-16T20:28:25.060Z,11.60
2018-03-16T20:31:00.156Z,11.73
2018-03-16T20:33:34.616Z,12.37
2018-03-16T20:36:10.737Z,12.83
2018-03-16T20:38:44.417Z,12.53
2018-03-16T20:41:19.460Z,13.50
2018-03-16T20:43:54.957Z,12.63
2018-03-16T20:46:46.773Z,12.47
2018-03-16T20:49:16.718Z,11.67
2018-03-16T20:51:46.257Z,10.60
2018-03-16T20:54:16.017Z,9.17
2018-03-16T20:56:45.756Z,10.07
2018-03-16T20:59:15.606Z,9.87
2018-03-16T21:01:47.211Z,9.57
2018-03-16T21:04:16.761Z,9.13
2018-03-16T21:06:47.595Z,10.03
2018-03-16T21:09:17.144Z,10.03
2018-03-16T21:11:46.689Z,10.67
2018-03-16T21:14:17.683Z,10.57
2018-03-16T21:19:57.832Z,11.10
2018-03-16T21:22:28.473Z,11.10
2018-03-16T21:25:05.650Z,17.97
2018-03-16T21:27:38.089Z,15.90
2018-03-16T21:30:08.908Z,17.03
2018-03-16T21:32:38.935Z,17.77
2018-03-16T21:35:08.460Z,18.47
2018-03-16T21:37:37.963Z,17.10
2018-03-16T21:40:12.635Z,16.80
2018-03-16T21:42:44.811Z,17.97
2018-03-16T21:45:19.656Z,16.83
2018-03-16T21:47:54.496Z,16.43
2018-03-16T21:50:31.480Z,14.97
2018-03-16T21:53:03.446Z,13.47
2018-03-16T21:55:35.099Z,12.57
2018-03-16T21:58:04.599Z,13.07
2018-03-16T22:00:36.537Z,13.80
2018-03-16T22:03:06.955Z,11.53
2018-03-16T22:05:36.873Z,11.47
2018-03-16T22:08:07.019Z,11.57
2018-03-16T22:10:38.143Z,11.80
2018-03-16T22:13:11.250Z,11.60
2018-03-16T22:15:46.164Z,12.63
2018-03-16T22:18:21.520Z,13.47
2018-03-16T22:20:52.357Z,12.43
2018-03-16T22:23:22.142Z,13.43
2018-03-16T22:25:52.338Z,12.77
2018-03-16T22:28:22.352Z,12.63
2018-03-16T22:30:52.510Z,13.60
2018-03-16T22:33:22.494Z,12.73
2018-03-16T22:35:54.725Z,12.97
2018-03-16T22:38:25.779Z,13.47
2018-03-16T22:40:55.475Z,13.07
2018-03-16T22:43:25.114Z,15.17
2018-03-16T22:45:54.629Z,13.93
2018-03-16T22:48:24.126Z,14.73
2018-03-16T22:50:55.313Z,16.90
2018-03-16T22:53:29.014Z,16.47
2018-03-16T22:56:05.646Z,17.80
2018-03-16T22:58:37.737Z,16.37
2018-03-16T23:01:12.721Z,14.17
2018-03-16T23:03:46.763Z,12.33
2018-03-16T23:06:16.267Z,11.47
2018-03-16T23:08:45.808Z,11.40
2018-03-16T23:11:16.233Z,13.93
2018-03-16T23:13:48.043Z,11.47
2018-03-16T23:16:17.966Z,11.73
2018-03-16T23:19:11.720Z,10.93
2018-03-16T23:21:52.540Z,10.23
2018-03-16T23:24:25.064Z,11.10
2018-03-16T23:27:01.691Z,10.83
2018-03-16T23:29:32.693Z,11.37
2018-03-16T23:32:02.379Z,11.43
2018-03-16T23:34:32.869Z,11.13
2018-03-16T23:37:02.425Z,14.87
2018-03-16T23:39:32.677Z,18.33
2018-03-16T23:42:02.523Z,17.77
2018-03-16T23:44:33.458Z,17.67
2018-03-16T23:47:05.956Z,20.03
2018-03-16T23:49:41.614Z,18.03
2018-03-16T23:52:13.836Z,18.00
2018-03-16T23:57:25.704Z,18.37
2018-03-16T23:59:55.232Z,19.30
